Time;durP1;ratioP1;P1;durP2;ratioP2;P2;SDS_P1;SDS_P2;PMS_P1;PMS_P2;Temp;Humidity;BMP_temperature;BMP_pressure;BME280_temperature;BME280_humidity;BME280_pressure;Samples;Min_cycle;Max_cycle;Signal;HPM_P1;HPM_P2
2023/12/22 00:02:47;;;;;;;5.97;5.43;;;8.40;99.90;;;;;;10501375;28;20707;-78
2023/12/22 00:07:50;;;;;;;5.83;5.43;;;8.30;99.90;;;;;;10484451;28;20265;-79
2023/12/22 00:12:53;;;;;;;6.63;5.93;;;8.30;99.90;;;;;;10499286;28;20196;-79
2023/12/22 00:17:56;;;;;;;5.80;5.40;;;8.30;99.90;;;;;;10497562;28;20282;-78
2023/12/22 00:22:58;;;;;;;6.77;6.07;;;8.30;99.90;;;;;;10498983;28;20192;-79
2023/12/22 00:28:02;;;;;;;8.17;7.20;;;8.30;99.90;;;;;;10499199;28;20289;-78
2023/12/22 00:33:05;;;;;;;8.67;6.40;;;8.40;99.90;;;;;;10487019;28;20199;-79
2023/12/22 00:38:07;;;;;;;10.00;6.70;;;8.50;99.90;;;;;;10482711;28;20217;-79
2023/12/22 00:43:11;;;;;;;7.90;7.13;;;8.50;99.90;;;;;;10500137;28;20203;-79
2023/12/22 00:48:13;;;;;;;8.60;6.83;;;8.50;99.90;;;;;;10500746;28;20243;-78
2023/12/22 00:53:15;;;;;;;7.30;6.80;;;8.60;99.90;;;;;;10500611;28;20215;-79
2023/12/22 00:58:19;;;;;;;7.07;6.63;;;8.50;99.90;;;;;;10477779;28;20213;-79
2023/12/22 01:03:21;;;;;;;6.50;5.97;;;8.40;99.90;;;;;;10490681;28;20189;-79
2023/12/22 01:08:24;;;;;;;7.63;5.93;;;8.40;99.90;;;;;;10470915;28;20220;-78
2023/12/22 01:13:27;;;;;;;7.70;6.83;;;8.40;99.90;;;;;;10477311;28;20192;-78
2023/12/22 01:18:31;;;;;;;7.47;6.83;;;8.40;99.90;;;;;;10476111;28;20225;-79
2023/12/22 01:23:33;;;;;;;10.57;6.70;;;8.30;99.90;;;;;;10498648;28;20193;-79
2023/12/22 01:28:37;;;;;;;6.10;5.60;;;8.30;99.90;;;;;;10499280;28;20295;-79
2023/12/22 01:33:39;;;;;;;7.07;6.47;;;8.30;99.90;;;;;;10471228;28;20246;-79
2023/12/22 01:38:42;;;;;;;9.67;5.77;;;8.30;99.90;;;;;;10482858;28;20217;-79
2023/12/22 01:43:45;;;;;;;5.87;5.47;;;8.20;99.90;;;;;;10484812;28;20200;-79
2023/12/22 01:48:48;;;;;;;6.67;4.67;;;8.10;99.90;;;;;;10492511;28;20208;-79
2023/12/22 01:53:52;;;;;;;6.00;4.27;;;8.10;99.90;;;;;;10502988;28;20200;-79
2023/12/22 01:59:00;;;;;;;4.17;3.77;;;8.10;99.90;;;;;;10463306;28;20209;-79
2023/12/22 02:04:04;;;;;;;4.40;4.00;;;8.10;99.90;;;;;;10475214;28;20670;-79
2023/12/22 02:09:06;;;;;;;3.77;3.50;;;8.10;99.90;;;;;;10477270;28;20224;-79
2023/12/22 02:14:10;;;;;;;3.60;3.30;;;8.20;99.90;;;;;;10478369;28;20189;-79
2023/12/22 02:19:33;;;;;;;5.30;3.40;;;8.20;99.90;;;;;;10475809;28;20231;-79
2023/12/22 02:24:37;;;;;;;2.67;2.57;;;8.20;99.90;;;;;;10457460;28;20583;-79
2023/12/22 02:29:52;;;;;;;3.10;2.83;;;8.20;99.90;;;;;;10475136;28;20636;-79
2023/12/22 02:34:57;;;;;;;3.43;3.20;;;8.20;99.90;;;;;;10457361;28;20255;-79
2023/12/22 02:40:01;;;;;;;4.30;2.93;;;8.20;99.90;;;;;;10473695;28;20275;-79
2023/12/22 02:45:04;;;;;;;6.37;2.90;;;8.30;99.90;;;;;;10454542;28;20186;-79
2023/12/22 02:50:08;;;;;;;2.43;2.23;;;8.40;99.90;;;;;;10453433;28;20229;-79
2023/12/22 02:55:12;;;;;;;5.70;2.77;;;8.40;99.90;;;;;;10471197;28;20186;-79
2023/12/22 03:00:15;;;;;;;2.70;2.30;;;8.40;99.90;;;;;;10469245;28;20626;-78
2023/12/22 03:05:17;;;;;;;5.20;2.83;;;8.50;99.90;;;;;;10469790;28;20206;-79
2023/12/22 03:10:21;;;;;;;3.43;2.10;;;8.60;99.90;;;;;;10468235;28;20226;-79
2023/12/22 03:15:23;;;;;;;3.20;1.90;;;8.60;99.90;;;;;;10465793;28;20198;-79
2023/12/22 03:20:26;;;;;;;3.53;2.37;;;8.60;99.90;;;;;;10464202;28;20591;-79
2023/12/22 03:25:29;;;;;;;3.33;2.03;;;8.60;99.90;;;;;;10465232;28;20619;-79
2023/12/22 03:30:32;;;;;;;3.17;1.87;;;8.70;99.90;;;;;;10461298;28;20213;-79
2023/12/22 03:35:34;;;;;;;5.23;2.20;;;8.80;99.90;;;;;;10460274;28;20186;-79
2023/12/22 03:40:38;;;;;;;4.33;2.03;;;8.80;99.90;;;;;;10459137;28;20761;-78
2023/12/22 03:45:40;;;;;;;3.60;1.60;;;8.80;99.90;;;;;;10460623;28;20237;-79
2023/12/22 03:50:43;;;;;;;4.80;2.40;;;8.80;99.90;;;;;;10457552;28;20260;-78
2023/12/22 03:55:47;;;;;;;4.70;1.90;;;8.80;99.90;;;;;;10456224;28;20193;-78
2023/12/22 04:00:49;;;;;;;3.47;1.93;;;8.90;99.90;;;;;;10457107;28;20190;-78
2023/12/22 04:05:51;;;;;;;3.00;2.50;;;8.90;99.90;;;;;;10435417;28;20220;-79
2023/12/22 04:10:55;;;;;;;4.60;2.23;;;8.80;99.90;;;;;;10451899;28;20214;-78
2023/12/22 04:15:58;;;;;;;3.97;2.50;;;8.60;99.90;;;;;;10458045;28;20264;-79
2023/12/22 04:21:01;;;;;;;4.23;2.90;;;8.50;99.90;;;;;;10457001;28;20194;-79
2023/12/22 04:26:04;;;;;;;5.80;2.87;;;8.50;99.90;;;;;;10457837;28;20221;-79
2023/12/22 04:31:07;;;;;;;5.90;2.60;;;8.30;99.90;;;;;;10432713;28;20214;-79
2023/12/22 04:36:09;;;;;;;6.10;3.00;;;8.30;99.90;;;;;;10449864;28;20667;-79
2023/12/22 04:41:13;;;;;;;6.90;3.17;;;8.20;99.90;;;;;;10433332;28;20193;-78
2023/12/22 04:46:15;;;;;;;3.80;2.40;;;8.10;99.90;;;;;;10446555;28;20217;-79
2023/12/22 04:51:18;;;;;;;3.80;2.63;;;8.10;99.90;;;;;;10426183;28;20272;-79
2023/12/22 04:56:22;;;;;;;4.33;1.80;;;8.10;99.90;;;;;;10442801;28;20634;-79
2023/12/22 05:01:24;;;;;;;2.00;1.80;;;8.20;99.90;;;;;;10442026;28;20194;-78
2023/12/22 05:06:27;;;;;;;1.73;1.53;;;8.20;99.90;;;;;;10441462;28;20221;-79
2023/12/22 05:11:30;;;;;;;3.93;1.70;;;8.30;99.90;;;;;;10440241;28;20741;-78
2023/12/22 05:21:37;;;;;;;5.30;2.30;;;8.50;99.90;;;;;;10495026;28;20311;-77
2023/12/22 05:26:41;;;;;;;6.20;2.50;;;8.50;99.90;;;;;;10499708;28;20196;-78
2023/12/22 05:31:43;;;;;;;3.57;1.83;;;8.60;99.90;;;;;;10500559;28;20227;-77
2023/12/22 05:36:45;;;;;;;5.23;2.70;;;8.60;99.90;;;;;;10507542;28;20283;-77
2023/12/22 05:41:49;;;;;;;6.67;2.83;;;8.80;99.90;;;;;;10518730;28;20209;-78
2023/12/22 05:46:51;;;;;;;4.43;2.40;;;8.70;99.90;;;;;;10506842;28;20192;-77
2023/12/22 05:51:53;;;;;;;5.10;2.50;;;8.70;99.90;;;;;;10518402;28;20220;-77
2023/12/22 05:56:57;;;;;;;8.53;2.10;;;8.60;99.90;;;;;;10506545;28;20223;-77
2023/12/22 06:01:59;;;;;;;4.30;2.10;;;8.70;99.90;;;;;;10519005;28;20698;-77
2023/12/22 06:07:02;;;;;;;6.23;2.70;;;8.70;99.90;;;;;;10507105;28;20215;-78
2023/12/22 06:12:06;;;;;;;5.67;2.20;;;8.80;99.90;;;;;;10521312;28;20258;-78
2023/12/22 06:17:08;;;;;;;8.40;3.03;;;8.80;99.90;;;;;;10513203;28;20220;-77
2023/12/22 06:22:11;;;;;;;7.87;2.13;;;8.90;99.90;;;;;;10520659;28;20230;-77
2023/12/22 06:27:14;;;;;;;5.27;2.40;;;8.90;99.90;;;;;;10492926;28;20704;-78
2023/12/22 06:32:17;;;;;;;5.47;2.20;;;8.90;99.90;;;;;;10503994;28;20228;-77
2023/12/22 06:37:20;;;;;;;5.47;2.40;;;9.00;99.90;;;;;;10508092;28;20222;-78
2023/12/22 06:42:23;;;;;;;5.17;2.50;;;9.00;99.90;;;;;;10523679;28;20266;-78
2023/12/22 06:47:26;;;;;;;8.40;2.80;;;9.00;99.90;;;;;;10510527;28;20680;-78
2023/12/22 06:52:30;;;;;;;7.03;2.17;;;9.00;99.90;;;;;;10523348;28;20220;-78
2023/12/22 06:57:33;;;;;;;10.33;3.30;;;9.00;99.90;;;;;;10506515;28;20219;-77
2023/12/22 07:02:36;;;;;;;4.27;2.13;;;9.10;99.90;;;;;;10520518;28;20189;-77
2023/12/22 07:07:38;;;;;;;4.90;2.60;;;9.10;99.90;;;;;;10506899;28;20211;-78
2023/12/22 07:12:42;;;;;;;4.83;2.20;;;9.10;99.90;;;;;;10521853;28;20257;-78
2023/12/22 07:17:44;;;;;;;5.33;2.67;;;9.10;99.90;;;;;;10508470;28;20228;-78
2023/12/22 07:22:46;;;;;;;4.30;2.00;;;9.10;99.90;;;;;;10525752;28;20204;-77
2023/12/22 07:27:51;;;;;;;8.03;2.40;;;9.10;99.90;;;;;;10510113;28;20220;-78
2023/12/22 07:32:53;;;;;;;3.83;2.33;;;9.10;99.90;;;;;;10524906;28;20216;-78
2023/12/22 07:37:56;;;;;;;4.00;2.33;;;9.10;99.90;;;;;;10508798;28;20245;-79
2023/12/22 07:42:59;;;;;;;9.33;2.97;;;9.10;99.90;;;;;;10526422;28;20196;-78
2023/12/22 07:48:02;;;;;;;8.60;2.37;;;9.10;99.90;;;;;;10515400;28;20219;-78
2023/12/22 07:53:04;;;;;;;3.33;2.03;;;9.10;99.90;;;;;;10527194;28;20639;-77
2023/12/22 07:58:08;;;;;;;3.40;2.20;;;9.20;99.90;;;;;;10488025;28;20223;-77
2023/12/22 08:03:11;;;;;;;2.47;1.90;;;9.20;99.90;;;;;;10520754;28;20685;-78
2023/12/22 08:08:16;;;;;;;4.47;2.20;;;9.10;99.90;;;;;;10487824;28;20269;-78
2023/12/22 08:13:20;;;;;;;7.40;2.50;;;9.10;99.90;;;;;;10508206;28;20224;-77
2023/12/22 08:18:22;;;;;;;3.30;2.00;;;9.00;99.90;;;;;;10499395;28;20220;-77
2023/12/22 08:23:24;;;;;;;6.00;2.63;;;8.90;99.90;;;;;;10496568;28;20193;-77
2023/12/22 08:28:28;;;;;;;4.93;2.50;;;8.80;99.90;;;;;;10492597;28;20658;-77
2023/12/22 08:33:31;;;;;;;8.20;3.80;;;8.70;99.90;;;;;;10499959;28;20216;-78
2023/12/22 08:38:33;;;;;;;6.90;3.83;;;8.60;99.90;;;;;;10499986;28;20224;-78
2023/12/22 08:43:38;;;;;;;9.67;2.60;;;8.50;99.90;;;;;;10495194;28;20259;-76
2023/12/22 08:48:40;;;;;;;11.93;3.93;;;8.50;99.90;;;;;;10491873;28;20225;-76
2023/12/22 08:53:42;;;;;;;7.97;3.27;;;8.40;99.90;;;;;;10502039;28;20228;-76
2023/12/22 08:58:46;;;;;;;14.67;4.17;;;8.40;99.90;;;;;;10498275;28;20228;-77
2023/12/22 09:03:49;;;;;;;8.60;3.10;;;8.40;99.90;;;;;;10502431;28;20588;-76
2023/12/22 09:08:52;;;;;;;6.77;3.00;;;8.40;99.90;;;;;;10497671;28;20285;-77
2023/12/22 09:13:56;;;;;;;7.00;2.60;;;8.40;99.90;;;;;;10503221;28;20265;-77
2023/12/22 09:18:58;;;;;;;10.03;3.73;;;8.40;99.90;;;;;;10496884;28;20223;-76
2023/12/22 09:24:01;;;;;;;7.37;3.60;;;8.40;99.90;;;;;;10485156;28;20711;-77
2023/12/22 09:29:05;;;;;;;12.63;4.20;;;8.50;99.90;;;;;;10496790;28;20216;-78
2023/12/22 09:34:07;;;;;;;5.93;3.27;;;8.50;99.90;;;;;;10503557;28;20212;-77
2023/12/22 09:39:09;;;;;;;11.57;3.60;;;8.60;99.90;;;;;;10502293;28;20208;-77
2023/12/22 09:44:14;;;;;;;9.93;3.53;;;8.60;99.90;;;;;;10505828;28;20635;-77
2023/12/22 09:49:18;;;;;;;10.87;3.00;;;8.70;99.90;;;;;;10497275;28;20216;-79
2023/12/22 09:54:20;;;;;;;12.90;3.63;;;8.90;99.90;;;;;;10496248;28;20703;-76
2023/12/22 09:59:25;;;;;;;11.20;3.70;;;8.90;99.90;;;;;;10505044;28;20221;-76
2023/12/22 10:04:28;;;;;;;7.57;3.10;;;9.00;99.90;;;;;;10498323;28;20542;-78
2023/12/22 10:09:31;;;;;;;10.63;3.90;;;9.10;99.90;;;;;;10507820;28;20270;-78
2023/12/22 10:14:35;;;;;;;6.83;3.30;;;9.30;99.90;;;;;;10484516;28;20228;-78
2023/12/22 10:19:39;;;;;;;9.93;3.23;;;9.30;99.90;;;;;;10513613;28;20228;-79
2023/12/22 10:24:43;;;;;;;8.50;3.60;;;9.40;99.90;;;;;;10480682;28;20193;-77
2023/12/22 10:29:48;;;;;;;12.37;4.13;;;9.40;99.90;;;;;;10508778;28;20724;-78
2023/12/22 10:34:52;;;;;;;7.13;3.43;;;9.50;99.90;;;;;;10497187;28;20302;-77
2023/12/22 10:39:55;;;;;;;8.43;3.40;;;9.60;99.90;;;;;;10508968;28;20216;-77
2023/12/22 10:45:00;;;;;;;6.47;2.93;;;9.60;99.90;;;;;;10497073;28;20185;-78
2023/12/22 10:50:04;;;;;;;12.37;3.23;;;9.60;99.90;;;;;;10510359;28;20223;-77
2023/12/22 10:55:07;;;;;;;6.37;2.43;;;9.70;99.90;;;;;;10496595;28;20228;-77
2023/12/22 11:00:16;;;;;;;8.87;3.20;;;9.70;99.90;;;;;;10510893;28;20212;-78
2023/12/22 11:05:21;;;;;;;8.17;3.23;;;9.70;99.90;;;;;;10497298;28;20657;-78
2023/12/22 11:10:25;;;;;;;10.50;2.60;;;9.70;99.90;;;;;;10511888;28;20217;-78
2023/12/22 11:15:29;;;;;;;6.87;2.17;;;9.70;99.90;;;;;;10494747;28;20212;-77
2023/12/22 11:20:33;;;;;;;8.20;2.90;;;9.60;99.90;;;;;;10493406;28;20228;-78
2023/12/22 11:25:37;;;;;;;7.27;2.20;;;9.60;99.90;;;;;;10495416;28;20231;-77
2023/12/22 11:30:41;;;;;;;3.83;1.93;;;9.60;99.90;;;;;;10493761;28;20216;-77
2023/12/22 11:35:45;;;;;;;4.67;2.10;;;9.50;99.90;;;;;;10494777;28;20277;-76
2023/12/22 11:40:48;;;;;;;2.60;2.27;;;9.40;99.90;;;;;;10512224;28;20220;-76
2023/12/22 11:45:51;;;;;;;3.80;2.30;;;9.30;99.90;;;;;;10494548;28;20725;-77
2023/12/22 11:50:55;;;;;;;2.23;2.03;;;9.20;99.90;;;;;;10514543;28;20569;-77
2023/12/22 11:55:58;;;;;;;3.53;2.53;;;9.20;99.90;;;;;;10494800;28;20192;-77
2023/12/22 12:01:03;;;;;;;1.90;1.80;;;9.10;99.90;;;;;;10513129;28;20205;-77
2023/12/22 12:06:32;;;;;;;2.83;2.07;;;9.00;99.90;;;;;;10494170;28;20634;-78
2023/12/22 12:12:12;;;;;;;2.83;2.63;;;8.90;99.90;;;;;;10503181;28;20231;-79
2023/12/22 12:17:20;;;;;;;4.43;2.40;;;8.90;99.90;;;;;;10499439;28;20712;-78
2023/12/22 12:22:24;;;;;;;4.07;2.10;;;8.90;99.90;;;;;;10513386;28;20192;-77
2023/12/22 12:27:27;;;;;;;2.93;2.50;;;8.90;99.90;;;;;;10495999;28;20220;-77
2023/12/22 12:32:31;;;;;;;4.10;1.90;;;8.90;99.90;;;;;;10518313;28;20216;-77
2023/12/22 12:37:33;;;;;;;2.20;2.00;;;8.90;99.90;;;;;;10492803;28;20224;-77
2023/12/22 12:42:38;;;;;;;2.30;2.17;;;8.90;99.90;;;;;;10514156;28;20223;-78
2023/12/22 12:47:42;;;;;;;2.27;2.00;;;8.90;99.90;;;;;;10492382;28;20631;-77
2023/12/22 12:52:44;;;;;;;2.40;2.20;;;8.90;99.90;;;;;;10516947;28;20212;-78
2023/12/22 12:57:49;;;;;;;2.13;1.67;;;8.90;99.90;;;;;;10492346;28;20220;-77
2023/12/22 13:02:56;;;;;;;2.37;1.90;;;8.90;99.90;;;;;;10517069;28;20185;-78
2023/12/22 13:08:08;;;;;;;2.10;1.90;;;8.90;99.90;;;;;;10473681;28;20224;-78
2023/12/22 13:13:11;;;;;;;1.90;1.80;;;8.90;99.90;;;;;;10516869;28;20219;-77
2023/12/22 13:18:14;;;;;;;2.63;1.40;;;8.90;99.90;;;;;;10491804;28;20232;-78
2023/12/22 13:23:19;;;;;;;2.30;2.20;;;8.90;99.90;;;;;;10518344;28;20262;-77
2023/12/22 13:28:26;;;;;;;2.00;1.90;;;8.90;99.90;;;;;;10473994;28;20720;-78
2023/12/22 13:33:34;;;;;;;2.07;1.97;;;9.00;99.90;;;;;;10518000;28;20220;-77
2023/12/22 13:38:37;;;;;;;1.60;1.60;;;9.10;99.90;;;;;;10462364;28;20229;-77
2023/12/22 13:43:39;;;;;;;1.40;1.40;;;9.20;99.90;;;;;;10525511;28;20197;-78
2023/12/22 13:48:44;;;;;;;0.70;0.70;;;9.30;99.90;;;;;;10497789;28;20224;-77
2023/12/22 13:53:49;;;;;;;1.60;1.60;;;9.40;99.90;;;;;;10479737;28;20627;-76
2023/12/22 13:58:51;;;;;;;1.20;1.10;;;9.70;99.90;;;;;;10525770;28;20219;-76
2023/12/22 14:03:57;;;;;;;1.73;1.63;;;9.70;99.90;;;;;;10496934;28;20193;-76
2023/12/22 14:08:59;;;;;;;1.50;1.40;;;9.80;99.90;;;;;;10525512;28;20216;-76
2023/12/22 14:14:02;;;;;;;2.67;1.60;;;9.90;99.90;;;;;;10496591;28;20632;-76
2023/12/22 14:19:05;;;;;;;1.50;1.50;;;9.90;99.90;;;;;;10531988;28;20228;-78
2023/12/22 14:24:08;;;;;;;1.80;1.50;;;10.10;99.90;;;;;;10502246;28;20192;-79
2023/12/22 14:29:10;;;;;;;1.63;1.53;;;10.20;99.90;;;;;;10530159;28;20216;-78
2023/12/22 14:34:15;;;;;;;1.13;1.13;;;10.20;99.90;;;;;;10496565;28;20220;-77
2023/12/22 14:39:17;;;;;;;2.03;1.93;;;10.30;99.90;;;;;;10464539;28;20246;-77
2023/12/22 14:44:20;;;;;;;1.20;1.10;;;10.30;99.90;;;;;;10495977;28;20402;-77
2023/12/22 14:49:23;;;;;;;1.30;1.30;;;10.40;99.90;;;;;;10528266;28;20235;-78
2023/12/22 14:54:26;;;;;;;1.37;1.27;;;10.30;99.90;;;;;;10463962;28;20523;-76
2023/12/22 14:59:28;;;;;;;1.40;1.30;;;10.40;99.90;;;;;;10528253;28;20220;-77
2023/12/22 15:04:34;;;;;;;1.10;1.10;;;10.40;99.90;;;;;;10495824;28;20196;-77
2023/12/22 15:09:40;;;;;;;1.50;1.50;;;10.40;99.90;;;;;;10529397;28;20693;-77
2023/12/22 15:14:44;;;;;;;1.50;1.40;;;10.40;99.90;;;;;;10495108;28;20227;-76
2023/12/22 15:19:48;;;;;;;1.57;1.47;;;10.50;99.90;;;;;;10532710;28;20576;-76
2023/12/22 15:24:51;;;;;;;0.67;0.67;;;10.40;99.90;;;;;;10495827;28;20612;-77
2023/12/22 15:29:54;;;;;;;1.40;1.40;;;10.50;99.90;;;;;;10527909;28;20216;-78
2023/12/22 15:34:57;;;;;;;1.87;1.60;;;10.50;99.90;;;;;;10496205;28;20262;-77
2023/12/22 15:40:00;;;;;;;2.07;1.43;;;10.50;99.90;;;;;;10529238;28;20224;-78
2023/12/22 15:45:03;;;;;;;1.33;1.30;;;10.50;99.90;;;;;;10496634;28;20270;-78
2023/12/22 15:50:08;;;;;;;0.77;0.70;;;10.60;99.90;;;;;;10529228;28;20250;-78
2023/12/22 15:55:11;;;;;;;1.40;1.40;;;10.50;99.90;;;;;;10495841;28;20372;-78
2023/12/22 16:00:15;;;;;;;3.33;1.30;;;10.50;99.90;;;;;;10528104;28;20216;-78
2023/12/22 16:05:19;;;;;;;1.07;1.07;;;10.60;99.90;;;;;;10497498;28;20199;-78
2023/12/22 16:10:21;;;;;;;0.70;0.70;;;10.60;99.90;;;;;;10529243;28;20212;-78
2023/12/22 16:15:23;;;;;;;1.40;1.30;;;10.60;99.90;;;;;;10479891;28;20227;-78
2023/12/22 16:20:28;;;;;;;1.93;1.83;;;10.60;99.90;;;;;;10536109;28;20645;-77
2023/12/22 16:25:30;;;;;;;1.30;1.30;;;10.60;99.90;;;;;;10497250;28;20246;-78
2023/12/22 16:30:33;;;;;;;1.53;1.17;;;10.60;99.90;;;;;;10529831;28;20216;-77
2023/12/22 16:35:37;;;;;;;1.47;1.37;;;10.70;99.90;;;;;;10496906;28;20626;-78
2023/12/22 16:40:40;;;;;;;1.10;1.10;;;10.60;99.90;;;;;;10530405;28;20216;-77
2023/12/22 16:45:43;;;;;;;1.30;1.30;;;10.60;99.90;;;;;;10490872;28;20200;-76
2023/12/22 16:50:46;;;;;;;1.37;1.20;;;10.60;99.90;;;;;;10473387;28;20228;-77
2023/12/22 16:55:49;;;;;;;1.37;1.37;;;10.70;99.90;;;;;;10490862;28;20247;-76
2023/12/22 17:00:51;;;;;;;2.10;2.00;;;10.60;99.90;;;;;;10492177;28;20220;-77
2023/12/22 17:05:55;;;;;;;1.20;1.10;;;10.70;99.90;;;;;;10491159;28;20596;-77
2023/12/22 17:10:57;;;;;;;1.27;0.80;;;10.60;99.90;;;;;;10477573;28;20689;-76
2023/12/22 17:16:00;;;;;;;1.10;1.10;;;10.60;99.90;;;;;;10498227;28;20235;-76
2023/12/22 17:21:04;;;;;;;1.03;1.03;;;10.70;99.90;;;;;;10501054;28;20219;-77
2023/12/22 17:26:09;;;;;;;1.30;1.20;;;10.70;99.90;;;;;;10497984;28;20719;-76
2023/12/22 17:31:12;;;;;;;1.10;1.10;;;10.70;99.90;;;;;;10502042;28;20245;-77
2023/12/22 17:36:16;;;;;;;1.10;1.10;;;10.70;99.90;;;;;;10496789;28;20220;-76
2023/12/22 17:41:18;;;;;;;1.20;1.10;;;10.70;99.90;;;;;;10501627;28;20641;-76
2023/12/22 17:46:20;;;;;;;2.03;1.60;;;10.70;99.90;;;;;;10497044;28;20200;-76
2023/12/22 17:51:24;;;;;;;1.93;1.37;;;10.60;99.90;;;;;;10484086;28;20746;-76
2023/12/22 17:56:26;;;;;;;1.33;1.33;;;10.60;99.90;;;;;;10496480;28;20217;-77
2023/12/22 18:01:29;;;;;;;1.00;1.00;;;10.80;99.90;;;;;;10502684;28;20220;-77
2023/12/22 18:06:33;;;;;;;1.10;1.10;;;10.70;99.90;;;;;;10497654;28;20609;-77
2023/12/22 18:11:40;;;;;;;1.57;1.30;;;10.70;99.90;;;;;;10503626;28;20208;-76
2023/12/22 18:16:43;;;;;;;2.40;1.50;;;10.70;99.90;;;;;;10444418;28;20720;-77
2023/12/22 18:21:47;;;;;;;1.20;1.10;;;10.70;99.90;;;;;;10507188;28;20657;-77
2023/12/22 18:26:50;;;;;;;1.33;1.23;;;10.70;99.90;;;;;;10497079;28;20201;-77
2023/12/22 18:31:55;;;;;;;2.90;1.70;;;10.70;99.90;;;;;;10444111;28;20601;-77
2023/12/22 18:36:58;;;;;;;1.70;1.37;;;10.70;99.90;;;;;;10462090;28;20212;-77
2023/12/22 18:42:01;;;;;;;1.73;1.63;;;10.70;99.90;;;;;;10462269;28;20195;-78
2023/12/22 18:47:03;;;;;;;1.80;1.70;;;10.70;99.90;;;;;;10502787;28;20211;-78
2023/12/22 18:52:07;;;;;;;1.30;1.20;;;10.70;99.90;;;;;;10477064;28;20803;-77
2023/12/22 18:57:09;;;;;;;1.83;1.53;;;10.70;99.90;;;;;;10476209;28;20212;-78
2023/12/22 19:02:12;;;;;;;1.37;1.23;;;10.70;99.90;;;;;;10503091;28;20192;-77
2023/12/22 19:07:15;;;;;;;1.63;1.53;;;10.70;99.90;;;;;;10494859;28;20213;-76
2023/12/22 19:12:18;;;;;;;1.77;1.40;;;10.70;99.90;;;;;;10503340;28;20199;-76
2023/12/22 19:17:20;;;;;;;1.83;1.57;;;10.70;99.90;;;;;;10494484;28;20228;-76
2023/12/22 19:22:24;;;;;;;1.40;1.27;;;10.70;99.90;;;;;;10502328;28;20199;-76
2023/12/22 19:27:26;;;;;;;3.13;1.40;;;10.70;99.90;;;;;;10494845;28;20221;-77
2023/12/22 19:32:29;;;;;;;1.63;1.53;;;10.70;99.90;;;;;;10501573;28;20196;-76
2023/12/22 19:37:33;;;;;;;1.40;1.30;;;10.60;99.90;;;;;;10494821;28;20270;-77
2023/12/22 19:42:36;;;;;;;1.30;1.20;;;10.60;99.90;;;;;;10504173;28;20204;-79
2023/12/22 19:47:38;;;;;;;2.07;1.77;;;10.60;99.90;;;;;;10478225;28;20220;-77
2023/12/22 19:52:42;;;;;;;2.07;1.53;;;10.60;99.90;;;;;;10474077;28;20246;-77
2023/12/22 19:57:44;;;;;;;3.43;1.87;;;10.60;99.90;;;;;;10502003;28;20708;-76
2023/12/22 20:02:47;;;;;;;1.50;1.40;;;10.50;99.90;;;;;;10495577;28;20616;-76
2023/12/22 20:07:50;;;;;;;1.70;1.60;;;10.50;99.90;;;;;;10472945;28;20707;-78
2023/12/22 20:12:53;;;;;;;2.00;1.80;;;10.50;99.90;;;;;;10501851;28;20184;-75
2023/12/22 20:17:55;;;;;;;1.63;1.53;;;10.50;99.90;;;;;;10477992;28;20713;-77
2023/12/22 20:22:58;;;;;;;1.63;1.50;;;10.50;99.90;;;;;;10502268;28;20268;-77
2023/12/22 20:28:01;;;;;;;1.60;1.50;;;10.40;99.90;;;;;;10496381;28;20220;-77
2023/12/22 20:33:03;;;;;;;2.10;1.40;;;10.40;99.90;;;;;;10501226;28;20665;-75
2023/12/22 20:38:07;;;;;;;2.10;1.60;;;10.50;99.90;;;;;;10496706;28;20228;-77
2023/12/22 20:43:10;;;;;;;2.57;1.93;;;10.50;99.90;;;;;;10501660;28;20398;-76
2023/12/22 20:48:12;;;;;;;7.20;1.77;;;10.60;99.90;;;;;;10499176;28;20216;-77
2023/12/22 20:53:16;;;;;;;1.57;1.47;;;10.50;99.90;;;;;;10508891;28;20196;-75
2023/12/22 20:58:18;;;;;;;1.50;1.40;;;10.50;99.90;;;;;;10507065;28;20247;-77
2023/12/22 21:03:20;;;;;;;2.77;1.70;;;10.50;99.90;;;;;;10509799;28;20253;-77
2023/12/22 21:08:25;;;;;;;1.47;1.37;;;10.50;99.90;;;;;;10506412;28;20217;-76
2023/12/22 21:13:28;;;;;;;2.87;1.50;;;10.50;99.90;;;;;;10479918;28;20629;-77
2023/12/22 21:18:31;;;;;;;2.33;1.53;;;10.40;99.90;;;;;;10509557;28;20673;-75
2023/12/22 21:23:35;;;;;;;2.60;1.63;;;10.50;99.90;;;;;;10506386;28;20273;-76
2023/12/22 21:28:38;;;;;;;4.00;2.40;;;10.40;99.90;;;;;;10509831;28;20220;-76
2023/12/22 21:33:40;;;;;;;1.93;1.43;;;10.40;99.90;;;;;;10506403;28;20197;-76
2023/12/22 21:38:44;;;;;;;1.30;1.30;;;10.40;99.90;;;;;;10509238;28;20243;-77
2023/12/22 21:43:47;;;;;;;1.50;1.40;;;10.40;99.90;;;;;;10507050;28;20454;-76
2023/12/22 21:48:49;;;;;;;2.30;1.83;;;10.40;99.90;;;;;;10509267;28;20274;-77
2023/12/22 21:53:53;;;;;;;2.13;1.80;;;10.50;99.90;;;;;;10507246;28;20626;-76
2023/12/22 21:58:55;;;;;;;2.40;1.50;;;10.50;99.90;;;;;;10508427;28;20638;-76
2023/12/22 22:03:58;;;;;;;1.80;1.50;;;10.50;99.90;;;;;;10507404;28;20674;-77
2023/12/22 22:09:02;;;;;;;4.47;1.80;;;10.50;99.90;;;;;;10477327;28;20212;-76
2023/12/22 22:14:04;;;;;;;1.40;1.30;;;10.50;99.90;;;;;;10509597;28;20253;-77
2023/12/22 22:19:07;;;;;;;2.97;1.83;;;10.40;99.90;;;;;;10507616;28;20224;-77
2023/12/22 22:24:11;;;;;;;1.83;1.70;;;10.50;99.90;;;;;;10509771;28;20574;-76
2023/12/22 22:29:14;;;;;;;1.63;1.47;;;10.50;99.90;;;;;;10507865;28;20701;-77
2023/12/22 22:34:17;;;;;;;2.30;1.57;;;10.40;99.90;;;;;;10508638;28;20424;-76
2023/12/22 22:39:21;;;;;;;2.40;2.10;;;10.40;99.90;;;;;;10507928;28;20270;-75
2023/12/22 22:44:24;;;;;;;4.07;1.80;;;10.40;99.90;;;;;;10509054;28;20195;-76
2023/12/22 22:49:26;;;;;;;1.50;1.40;;;10.40;99.90;;;;;;10507567;28;20216;-76
2023/12/22 22:54:30;;;;;;;2.47;1.77;;;10.50;99.90;;;;;;10508806;28;20257;-76
2023/12/22 22:59:32;;;;;;;1.70;1.50;;;10.50;99.90;;;;;;10508110;28;20228;-77
2023/12/22 23:04:38;;;;;;;2.40;1.60;;;10.50;99.90;;;;;;10508964;28;20200;-76
2023/12/22 23:09:42;;;;;;;2.47;1.70;;;10.40;99.90;;;;;;10507677;28;20211;-77
2023/12/22 23:14:44;;;;;;;3.90;1.67;;;10.40;99.90;;;;;;10474925;28;20273;-76
2023/12/22 23:19:47;;;;;;;1.63;1.53;;;10.40;99.90;;;;;;10508941;28;20719;-75
2023/12/22 23:24:53;;;;;;;1.43;1.33;;;10.40;99.90;;;;;;10508077;28;20203;-75
2023/12/22 23:29:56;;;;;;;2.83;1.60;;;10.40;99.90;;;;;;10509246;28;20235;-76
2023/12/22 23:34:58;;;;;;;3.97;2.27;;;10.40;99.90;;;;;;10507448;28;20718;-77
2023/12/22 23:40:03;;;;;;;5.80;1.90;;;10.30;99.90;;;;;;10508959;28;20220;-77
2023/12/22 23:45:06;;;;;;;4.53;2.33;;;10.30;99.90;;;;;;10508232;28;20192;-77
2023/12/22 23:50:10;;;;;;;1.83;1.73;;;10.40;99.90;;;;;;10473953;28;20209;-76
2023/12/22 23:55:14;;;;;;;2.00;1.90;;;10.40;99.90;;;;;;10508989;28;20616;-77
